createdAt,value
2022-11-14T00:01:29.668Z,8.80
2022-11-14T00:03:57.825Z,8.80
2022-11-14T00:06:25.961Z,8.70
2022-11-14T00:08:54.179Z,8.70
2022-11-14T00:11:22.912Z,8.70
2022-11-14T00:13:52.478Z,8.60
2022-11-14T00:16:20.671Z,8.60
2022-11-14T00:18:48.810Z,8.60
2022-11-14T00:21:19.208Z,8.60
2022-11-14T00:23:48.489Z,8.50
2022-11-14T00:26:19.879Z,8.60
2022-11-14T00:28:48.196Z,8.50
2022-11-14T00:31:17.808Z,8.50
2022-11-14T00:33:45.879Z,8.40
2022-11-14T00:36:14.410Z,8.40
2022-11-14T00:38:42.716Z,8.40
2022-11-14T00:41:10.807Z,8.40
2022-11-14T00:43:39.373Z,8.40
2022-11-14T00:46:07.759Z,8.40
2022-11-14T00:48:37.304Z,8.40
2022-11-14T00:51:05.625Z,8.30
2022-11-14T00:53:41.724Z,8.30
2022-11-14T00:56:09.910Z,8.30
2022-11-14T00:58:38.044Z,8.10
2022-11-14T01:01:06.398Z,8.10
2022-11-14T01:03:37.558Z,8.00
2022-11-14T01:06:07.378Z,8.00
2022-11-14T01:08:35.881Z,8.00
2022-11-14T01:11:10.685Z,8.00
2022-11-14T01:13:39.520Z,7.90
2022-11-14T01:16:08.718Z,7.90
2022-11-14T01:18:39.917Z,7.90
2022-11-14T01:21:09.672Z,7.80
2022-11-14T01:23:38.168Z,7.80
2022-11-14T01:26:08.746Z,7.70
2022-11-14T01:28:37.366Z,7.70
2022-11-14T01:31:13.103Z,7.70
2022-11-14T01:33:43.703Z,7.70
2022-11-14T01:36:12.215Z,7.70
2022-11-14T01:38:41.224Z,7.70
2022-11-14T01:41:11.095Z,7.70
2022-11-14T01:43:40.111Z,7.80
2022-11-14T01:46:11.136Z,7.70
2022-11-14T01:48:43.356Z,7.70
2022-11-14T01:51:24.650Z,7.60
2022-11-14T01:53:55.926Z,7.60
2022-11-14T01:56:29.139Z,7.60
2022-11-14T01:59:02.721Z,7.60
2022-11-14T02:01:35.360Z,7.60
2022-11-14T02:04:08.838Z,7.60
2022-11-14T02:06:41.303Z,7.50
2022-11-14T02:09:09.606Z,7.50
2022-11-14T02:11:41.989Z,7.60
2022-11-14T02:14:10.491Z,7.50
2022-11-14T02:16:40.544Z,7.50
2022-11-14T02:19:10.704Z,7.50
2022-11-14T02:21:40.207Z,7.50
2022-11-14T02:24:11.055Z,7.50
2022-11-14T02:26:39.966Z,7.50
2022-11-14T02:29:11.506Z,7.50
2022-11-14T02:31:40.362Z,7.50
2022-11-14T02:34:08.578Z,7.50
2022-11-14T02:36:36.688Z,7.50
2022-11-14T02:39:06.767Z,7.50
2022-11-14T02:41:34.963Z,7.50
2022-11-14T02:44:03.298Z,7.50
2022-11-14T02:46:33.934Z,7.40
2022-11-14T02:49:02.379Z,7.50
2022-11-14T02:51:30.576Z,7.50
2022-11-14T02:53:58.804Z,7.50
2022-11-14T02:56:28.518Z,7.50
2022-11-14T02:58:56.734Z,7.40
2022-11-14T03:01:31.514Z,7.50
2022-11-14T03:03:59.892Z,7.50
2022-11-14T03:06:28.022Z,7.50
2022-11-14T03:08:56.127Z,7.50
2022-11-14T03:11:27.072Z,7.50
2022-11-14T03:13:55.239Z,7.50
2022-11-14T03:16:24.359Z,7.50
2022-11-14T03:18:52.559Z,7.50
2022-11-14T03:21:23.234Z,7.50
2022-11-14T03:23:51.575Z,7.40
2022-11-14T03:26:20.121Z,7.30
2022-11-14T03:28:49.612Z,7.20
2022-11-14T03:31:17.764Z,7.20
2022-11-14T03:33:45.867Z,7.20
2022-11-14T03:36:13.968Z,7.20
2022-11-14T03:38:42.061Z,7.20
2022-11-14T03:41:10.193Z,7.20
2022-11-14T03:43:38.773Z,7.20
2022-11-14T03:46:08.519Z,7.20
2022-11-14T03:48:36.658Z,7.20
2022-11-14T03:51:05.011Z,7.20
2022-11-14T03:53:33.470Z,7.20
2022-11-14T03:56:01.694Z,7.30
2022-11-14T03:58:30.037Z,7.30
2022-11-14T04:00:58.607Z,7.20
2022-11-14T04:03:28.683Z,7.20
2022-11-14T04:05:56.789Z,7.30
2022-11-14T04:08:24.963Z,7.20
2022-11-14T04:10:53.261Z,7.20
2022-11-14T04:13:21.746Z,7.20
2022-11-14T04:15:56.929Z,7.20
2022-11-14T04:18:25.226Z,7.20
2022-11-14T04:20:55.193Z,7.10
2022-11-14T04:23:23.518Z,7.10
2022-11-14T04:25:51.569Z,7.20
2022-11-14T04:28:20.362Z,7.10
2022-11-14T04:30:48.608Z,7.10
2022-11-14T04:33:16.705Z,7.20
2022-11-14T04:35:45.490Z,7.10
2022-11-14T04:38:15.138Z,7.10
2022-11-14T04:40:49.975Z,7.10
2022-11-14T04:43:18.378Z,7.10
2022-11-14T04:45:47.124Z,7.00
2022-11-14T04:48:15.331Z,7.00
2022-11-14T04:50:43.607Z,6.90
2022-11-14T04:53:12.365Z,6.90
2022-11-14T04:55:41.915Z,7.00
2022-11-14T04:58:10.591Z,7.00
2022-11-14T05:00:38.765Z,7.00
2022-11-14T05:03:06.886Z,7.00
2022-11-14T05:05:39.301Z,6.90
2022-11-14T05:08:10.030Z,6.90
2022-11-14T05:10:38.338Z,6.90
2022-11-14T05:13:07.849Z,6.90
2022-11-14T05:15:36.359Z,6.90
2022-11-14T05:18:04.828Z,6.90
2022-11-14T05:20:33.067Z,6.80
2022-11-14T05:23:01.245Z,6.80
2022-11-14T05:25:29.459Z,6.80
2022-11-14T05:27:58.266Z,6.80
2022-11-14T05:30:27.795Z,6.70
2022-11-14T05:32:56.074Z,6.70
2022-11-14T05:35:24.719Z,6.70
2022-11-14T05:37:57.393Z,6.70
2022-11-14T05:40:27.211Z,6.70
2022-11-14T05:42:56.708Z,6.70
2022-11-14T05:45:24.922Z,6.80
2022-11-14T05:47:55.155Z,6.70
2022-11-14T05:50:23.276Z,6.70
2022-11-14T05:52:51.610Z,6.80
2022-11-14T05:55:24.627Z,6.80
2022-11-14T05:57:53.303Z,6.80
2022-11-14T06:00:22.056Z,6.70
2022-11-14T06:02:55.409Z,6.70
2022-11-14T06:05:24.038Z,6.70
2022-11-14T06:07:57.399Z,6.70
2022-11-14T06:10:26.558Z,6.70
2022-11-14T06:12:55.133Z,6.60
2022-11-14T06:15:24.686Z,6.60
2022-11-14T06:17:55.738Z,6.60
2022-11-14T06:20:23.829Z,6.70
2022-11-14T06:22:55.527Z,6.70
2022-11-14T06:25:23.633Z,6.70
2022-11-14T06:27:51.782Z,6.70
2022-11-14T06:30:20.516Z,6.70
2022-11-14T06:32:48.656Z,6.70
2022-11-14T06:35:18.716Z,6.60
2022-11-14T06:37:47.306Z,6.60
2022-11-14T06:40:16.164Z,6.60
2022-11-14T06:42:44.466Z,6.70
2022-11-14T06:45:13.110Z,6.70
2022-11-14T06:47:41.414Z,6.70
2022-11-14T06:50:10.392Z,6.70
2022-11-14T06:52:45.569Z,6.70
2022-11-14T06:55:13.794Z,6.70
2022-11-14T06:57:41.926Z,6.70
2022-11-14T07:00:11.010Z,6.80
2022-11-14T07:02:41.651Z,6.80
2022-11-14T07:05:10.268Z,6.80
2022-11-14T07:07:38.529Z,6.80
2022-11-14T07:10:08.970Z,6.80
2022-11-14T07:12:37.635Z,6.80
2022-11-14T07:15:06.502Z,6.80
2022-11-14T07:17:36.395Z,6.90
2022-11-14T07:20:05.087Z,6.90
2022-11-14T07:22:34.741Z,6.90
2022-11-14T07:25:03.021Z,7.00
2022-11-14T07:27:33.003Z,7.00
2022-11-14T07:30:01.275Z,7.00
2022-11-14T07:32:29.470Z,7.00
2022-11-14T07:35:02.083Z,7.00
2022-11-14T07:37:30.737Z,7.10
2022-11-14T07:39:58.894Z,7.10
2022-11-14T07:42:30.666Z,7.10
2022-11-14T07:45:00.338Z,7.10
2022-11-14T07:47:28.563Z,7.20
2022-11-14T07:49:56.760Z,7.30
2022-11-14T07:52:25.185Z,7.30
2022-11-14T07:54:54.643Z,7.40
2022-11-14T07:57:23.671Z,7.40
2022-11-14T07:59:52.096Z,7.50
2022-11-14T08:02:22.332Z,7.50
2022-11-14T08:04:50.564Z,7.50
2022-11-14T08:07:18.796Z,7.60
2022-11-14T08:09:47.748Z,7.60
2022-11-14T08:12:16.885Z,7.70
2022-11-14T08:14:52.510Z,7.80
2022-11-14T08:17:28.970Z,7.80
2022-11-14T08:19:57.279Z,7.80
2022-11-14T08:22:26.112Z,7.90
2022-11-14T08:24:54.242Z,8.00
2022-11-14T08:27:22.756Z,8.10
2022-11-14T08:29:51.250Z,8.10
2022-11-14T08:32:19.965Z,8.20
2022-11-14T08:34:49.868Z,8.20
2022-11-14T08:37:18.418Z,8.30
2022-11-14T08:39:46.562Z,8.40
2022-11-14T08:42:15.018Z,8.50
2022-11-14T08:44:46.677Z,8.70
2022-11-14T08:47:17.790Z,8.80
2022-11-14T08:49:46.003Z,9.00
2022-11-14T08:52:17.040Z,9.40
2022-11-14T08:54:45.818Z,10.10
2022-11-14T08:57:15.405Z,12.00
2022-11-14T09:00:13.946Z,14.30
2022-11-14T09:02:43.553Z,16.60
2022-11-14T09:05:12.020Z,18.80
2022-11-14T09:07:41.565Z,20.30
2022-11-14T09:10:10.823Z,21.40
2022-11-14T09:12:39.046Z,22.20
2022-11-14T09:15:08.236Z,22.80
2022-11-14T09:17:36.756Z,23.40
2022-11-14T09:20:05.386Z,23.90
2022-11-14T09:22:33.527Z,24.50
2022-11-14T09:25:03.247Z,24.90
2022-11-14T09:27:32.791Z,25.20
2022-11-14T09:30:01.230Z,25.50
2022-11-14T09:32:29.378Z,25.90
2022-11-14T09:34:57.782Z,25.30
2022-11-14T09:37:26.389Z,24.70
2022-11-14T09:39:54.915Z,23.90
2022-11-14T09:42:38.905Z,23.30
2022-11-14T09:45:13.210Z,22.90
2022-11-14T09:47:44.415Z,22.90
2022-11-14T09:50:15.732Z,22.80
2022-11-14T09:52:48.430Z,23.10
2022-11-14T09:55:21.478Z,23.00
2022-11-14T09:57:51.362Z,23.00
2022-11-14T10:00:21.912Z,23.00
2022-11-14T10:02:59.990Z,22.90
2022-11-14T10:05:43.311Z,22.40
2022-11-14T10:08:32.032Z,21.10
2022-11-14T10:11:07.691Z,19.70
2022-11-14T10:13:54.521Z,18.50
2022-11-14T10:16:36.546Z,17.00
2022-11-14T10:19:16.011Z,16.10
2022-11-14T10:22:09.566Z,15.40
2022-11-14T10:24:52.860Z,14.70
2022-11-14T10:27:25.990Z,14.00
2022-11-14T10:30:09.905Z,13.70
2022-11-14T10:33:00.262Z,13.40
2022-11-14T10:35:35.288Z,13.20
2022-11-14T10:38:11.094Z,12.90
2022-11-14T10:40:42.548Z,12.70
2022-11-14T10:43:22.057Z,12.60
2022-11-14T10:45:55.754Z,12.50
2022-11-14T10:48:32.867Z,12.30
2022-11-14T10:51:08.066Z,12.20
2022-11-14T10:53:48.545Z,12.20
2022-11-14T10:56:17.062Z,12.30
2022-11-14T10:58:49.841Z,12.10
2022-11-14T11:01:37.784Z,11.80
2022-11-14T11:04:21.824Z,11.90
2022-11-14T11:06:51.779Z,11.80
2022-11-14T11:09:45.548Z,11.90
2022-11-14T11:12:18.354Z,12.10
2022-11-14T11:14:52.014Z,12.20
2022-11-14T11:17:28.075Z,12.30
2022-11-14T11:20:27.535Z,11.80
2022-11-14T11:23:09.790Z,12.00
2022-11-14T11:25:47.976Z,12.00
2022-11-14T11:28:30.149Z,11.90
2022-11-14T11:31:01.938Z,11.80
2022-11-14T11:33:35.706Z,11.70
2022-11-14T11:36:13.256Z,11.60
2022-11-14T11:38:42.465Z,11.60
2022-11-14T11:44:24.344Z,11.30
2022-11-14T11:46:56.967Z,11.20
2022-11-14T11:49:40.000Z,11.30
2022-11-14T11:52:21.386Z,11.50
2022-11-14T11:54:58.043Z,11.80
2022-11-14T11:57:35.174Z,12.00
2022-11-14T12:00:08.658Z,11.90
2022-11-14T12:02:49.264Z,11.70
2022-11-14T12:05:27.941Z,11.70
2022-11-14T12:08:05.116Z,11.50
2022-11-14T12:10:38.231Z,11.60
2022-11-14T12:13:53.130Z,11.70
2022-11-14T12:16:37.415Z,11.60
2022-11-14T12:19:28.845Z,11.60
2022-11-14T12:22:30.022Z,11.40
2022-11-14T12:25:28.022Z,11.30
2022-11-14T12:28:14.766Z,11.20
2022-11-14T12:30:47.089Z,11.10
2022-11-14T12:33:21.690Z,11.00
2022-11-14T12:35:53.309Z,10.90
2022-11-14T12:38:23.892Z,10.90
2022-11-14T12:40:55.416Z,10.90
2022-11-14T12:43:44.115Z,10.80
2022-11-14T12:46:13.886Z,10.80
2022-11-14T12:48:43.323Z,10.70
2022-11-14T12:51:48.653Z,10.70
2022-11-14T12:54:47.276Z,10.80
2022-11-14T12:57:39.779Z,10.80
2022-11-14T13:00:10.402Z,10.80
2022-11-14T13:02:57.902Z,10.80
2022-11-14T13:05:47.479Z,10.60
2022-11-14T13:08:42.214Z,10.70
2022-11-14T13:12:00.971Z,10.60
2022-11-14T13:14:47.711Z,10.70
2022-11-14T13:17:47.245Z,10.70
2022-11-14T13:20:45.926Z,10.70
2022-11-14T13:23:51.341Z,10.60
2022-11-14T13:26:48.066Z,10.50
2022-11-14T13:29:48.413Z,10.50
2022-11-14T13:33:07.807Z,10.40
2022-11-14T13:36:05.280Z,10.40
2022-11-14T13:39:06.508Z,10.40
2022-11-14T13:42:09.099Z,10.30
2022-11-14T13:45:06.548Z,10.20
2022-11-14T13:48:12.736Z,10.20
2022-11-14T13:50:43.108Z,10.10
2022-11-14T13:53:16.819Z,10.20
2022-11-14T13:55:57.491Z,10.30
2022-11-14T13:58:39.514Z,10.40
2022-11-14T14:01:23.436Z,10.40
2022-11-14T14:04:08.913Z,10.50
2022-11-14T14:06:49.056Z,10.50
2022-11-14T14:09:29.559Z,10.50
2022-11-14T14:12:11.537Z,10.40
2022-11-14T14:14:55.818Z,10.40
2022-11-14T14:17:32.474Z,10.40
2022-11-14T14:20:15.409Z,10.40
2022-11-14T14:22:51.795Z,10.40
2022-11-14T14:25:24.173Z,10.40
2022-11-14T14:28:00.497Z,10.30
2022-11-14T14:30:30.352Z,10.30
2022-11-14T14:33:12.920Z,10.30
2022-11-14T14:35:51.052Z,10.30
2022-11-14T14:38:28.461Z,10.20
2022-11-14T14:40:57.412Z,10.10
2022-11-14T14:43:29.891Z,10.20
2022-11-14T14:46:01.560Z,10.20
2022-11-14T14:48:32.324Z,10.30
2022-11-14T14:51:03.036Z,10.30
2022-11-14T14:53:34.359Z,10.30
2022-11-14T14:56:04.494Z,10.30
2022-11-14T14:58:34.609Z,10.30
2022-11-14T15:01:07.981Z,10.30
2022-11-14T15:03:39.869Z,10.30
2022-11-14T15:06:29.796Z,10.30
2022-11-14T15:08:58.712Z,10.20
2022-11-14T15:11:32.407Z,10.20
2022-11-14T15:14:04.693Z,10.30
2022-11-14T15:16:34.955Z,10.20
2022-11-14T15:19:13.441Z,10.10
2022-11-14T15:21:49.704Z,10.10
2022-11-14T15:24:21.974Z,10.00
2022-11-14T15:26:52.213Z,10.00
2022-11-14T15:29:22.944Z,9.90
2022-11-14T15:31:56.557Z,10.00
2022-11-14T15:34:28.030Z,10.00
2022-11-14T15:37:23.989Z,9.90
2022-11-14T15:39:52.972Z,10.00
2022-11-14T15:42:30.287Z,10.00
2022-11-14T15:44:59.842Z,10.00
2022-11-14T15:47:31.028Z,9.90
2022-11-14T15:50:02.580Z,9.90
2022-11-14T15:52:35.100Z,9.90
2022-11-14T15:55:03.720Z,10.00
2022-11-14T15:57:33.438Z,10.00
2022-11-14T16:00:01.580Z,10.00
2022-11-14T16:02:34.398Z,9.90
2022-11-14T16:05:04.905Z,9.90
2022-11-14T16:07:33.192Z,9.90
2022-11-14T16:10:01.614Z,10.00
2022-11-14T16:12:30.097Z,10.00
2022-11-14T16:14:58.270Z,10.00
2022-11-14T16:17:26.516Z,9.80
2022-11-14T16:20:00.164Z,9.90
2022-11-14T16:22:28.378Z,9.90
2022-11-14T16:24:56.897Z,9.90
2022-11-14T16:27:27.941Z,9.90
2022-11-14T16:29:56.851Z,9.90
2022-11-14T16:32:26.738Z,9.90
2022-11-14T16:34:56.546Z,9.90
2022-11-14T16:37:25.245Z,9.90
2022-11-14T16:39:53.581Z,9.90
2022-11-14T16:42:21.747Z,9.90
2022-11-14T16:44:51.291Z,9.90
2022-11-14T16:47:20.581Z,9.90
2022-11-14T16:49:48.760Z,9.90
2022-11-14T16:52:19.290Z,9.90
2022-11-14T16:54:47.795Z,9.90
2022-11-14T16:57:16.016Z,9.90
2022-11-14T16:59:44.177Z,9.90
2022-11-14T17:02:16.106Z,9.80
2022-11-14T17:04:44.703Z,9.80
2022-11-14T17:07:16.652Z,9.80
2022-11-14T17:09:51.001Z,9.80
2022-11-14T17:12:19.136Z,9.80
2022-11-14T17:14:47.262Z,9.80
2022-11-14T17:17:17.846Z,9.80
2022-11-14T17:19:46.781Z,9.80
2022-11-14T17:22:16.136Z,9.70
2022-11-14T17:24:44.503Z,9.80
2022-11-14T17:27:14.176Z,9.80
2022-11-14T17:29:42.370Z,9.80
2022-11-14T17:32:11.020Z,9.80
2022-11-14T17:34:39.293Z,9.80
2022-11-14T17:37:07.994Z,9.90
2022-11-14T17:39:36.560Z,9.80
2022-11-14T17:42:05.549Z,9.80
2022-11-14T17:44:35.181Z,9.80
2022-11-14T17:47:03.777Z,9.80
2022-11-14T17:49:32.144Z,9.80
2022-11-14T17:52:00.376Z,9.80
2022-11-14T17:54:28.599Z,9.80
2022-11-14T17:56:57.601Z,9.80
2022-11-14T17:59:25.761Z,9.70
2022-11-14T18:01:59.877Z,9.70
2022-11-14T18:04:28.491Z,9.70
2022-11-14T18:06:57.176Z,9.70
2022-11-14T18:09:26.843Z,9.70
2022-11-14T18:11:55.369Z,9.80
2022-11-14T18:14:23.556Z,9.70
2022-11-14T18:17:11.941Z,9.70
2022-11-14T18:19:41.496Z,9.60
2022-11-14T18:22:09.708Z,9.50
2022-11-14T18:24:41.440Z,9.40
2022-11-14T18:27:09.750Z,9.50
2022-11-14T18:29:38.138Z,9.50
2022-11-14T18:32:06.998Z,9.40
2022-11-14T18:34:37.021Z,9.40
2022-11-14T18:37:06.943Z,9.40
2022-11-14T18:39:35.425Z,9.40
2022-11-14T18:42:04.071Z,9.40
2022-11-14T18:44:32.846Z,9.50
2022-11-14T18:47:01.065Z,9.50
2022-11-14T18:49:29.662Z,9.60
2022-11-14T18:51:58.362Z,9.60
2022-11-14T18:54:29.859Z,9.60
2022-11-14T18:56:58.019Z,9.70
2022-11-14T18:59:28.051Z,9.70
2022-11-14T19:01:58.335Z,9.70
2022-11-14T19:04:28.014Z,9.70
2022-11-14T19:06:56.521Z,9.70
2022-11-14T19:09:24.948Z,9.70
2022-11-14T19:12:12.167Z,9.70
2022-11-14T19:14:40.369Z,9.70
2022-11-14T19:17:08.922Z,9.70
2022-11-14T19:19:37.488Z,9.70
2022-11-14T19:22:05.914Z,9.70
2022-11-14T19:24:34.471Z,9.70
2022-11-14T19:27:04.291Z,9.70
2022-11-14T19:29:35.075Z,9.70
2022-11-14T19:32:03.734Z,9.70
2022-11-14T19:34:32.025Z,9.70
2022-11-14T19:37:01.201Z,9.70
2022-11-14T19:39:30.059Z,9.70
2022-11-14T19:41:58.618Z,9.70
2022-11-14T19:44:29.856Z,9.70
2022-11-14T19:46:58.152Z,9.80
2022-11-14T19:49:26.439Z,9.90
2022-11-14T19:51:54.647Z,10.00
2022-11-14T19:54:23.509Z,10.20
2022-11-14T19:56:51.792Z,10.30
2022-11-14T19:59:24.149Z,10.30
2022-11-14T20:01:55.674Z,10.50
2022-11-14T20:04:24.224Z,10.60
2022-11-14T20:06:52.554Z,10.60
2022-11-14T20:09:21.161Z,10.60
2022-11-14T20:11:50.003Z,10.60
2022-11-14T20:14:18.489Z,10.70
2022-11-14T20:16:47.023Z,10.70
2022-11-14T20:19:18.275Z,10.80
2022-11-14T20:21:46.609Z,10.80
2022-11-14T20:24:21.498Z,10.80
2022-11-14T20:26:49.902Z,10.90
2022-11-14T20:29:18.762Z,11.10
2022-11-14T20:31:47.081Z,11.10
2022-11-14T20:34:15.384Z,11.20
2022-11-14T20:39:34.835Z,11.20
2022-11-14T20:42:03.096Z,11.30
2022-11-14T20:44:31.785Z,11.30
2022-11-14T20:47:00.639Z,11.40
2022-11-14T20:49:28.917Z,11.50
2022-11-14T20:51:58.543Z,11.50
2022-11-14T20:54:27.310Z,11.50
2022-11-14T20:56:56.803Z,11.60
2022-11-14T20:59:25.097Z,11.50
2022-11-14T21:01:53.681Z,11.50
2022-11-14T21:04:21.992Z,11.50
2022-11-14T21:06:51.114Z,11.50
2022-11-14T21:09:24.532Z,11.60
2022-11-14T21:11:53.091Z,11.60
2022-11-14T21:14:21.247Z,11.60
2022-11-14T21:16:49.637Z,11.70
2022-11-14T21:19:18.240Z,11.70
2022-11-14T21:21:46.486Z,11.70
2022-11-14T21:24:14.871Z,11.60
2022-11-14T21:26:44.406Z,11.70
2022-11-14T21:29:14.634Z,11.80
2022-11-14T21:31:45.007Z,11.80
2022-11-14T21:34:14.860Z,11.80
2022-11-14T21:36:45.890Z,11.80
2022-11-14T21:39:16.500Z,11.80
2022-11-14T21:41:48.421Z,11.80
2022-11-14T21:44:19.049Z,11.80
2022-11-14T21:46:49.654Z,11.90
2022-11-14T21:49:18.001Z,11.90
2022-11-14T21:51:47.222Z,12.00
2022-11-14T21:54:17.960Z,12.00
2022-11-14T21:56:47.578Z,12.00
2022-11-14T21:59:21.250Z,12.10
2022-11-14T22:02:08.979Z,12.10
2022-11-14T22:04:37.953Z,12.20
2022-11-14T22:07:08.045Z,12.20
2022-11-14T22:09:39.973Z,12.30
2022-11-14T22:12:13.820Z,12.30
2022-11-14T22:14:44.313Z,12.30
2022-11-14T22:17:12.478Z,12.40
2022-11-14T22:19:40.687Z,12.30
2022-11-14T22:22:09.185Z,12.40
2022-11-14T22:24:39.735Z,12.40
2022-11-14T22:27:07.852Z,12.40
2022-11-14T22:29:37.426Z,12.40
2022-11-14T22:32:05.820Z,12.40
2022-11-14T22:34:33.980Z,12.40
2022-11-14T22:37:02.107Z,12.50
2022-11-14T22:39:30.228Z,12.50
2022-11-14T22:41:58.679Z,12.50
2022-11-14T22:44:26.813Z,12.50
2022-11-14T22:46:56.376Z,12.60
2022-11-14T22:49:24.822Z,12.50
2022-11-14T22:51:53.029Z,12.50
2022-11-14T22:54:21.209Z,12.50
2022-11-14T22:56:49.332Z,12.50
2022-11-14T22:59:17.789Z,12.50
2022-11-14T23:01:45.940Z,12.60
2022-11-14T23:04:15.601Z,12.60
2022-11-14T23:06:43.844Z,12.60
2022-11-14T23:09:12.515Z,12.60
2022-11-14T23:11:40.845Z,12.60
2022-11-14T23:14:09.001Z,12.60
2022-11-14T23:16:37.155Z,12.50
2022-11-14T23:19:05.936Z,12.50
2022-11-14T23:21:37.697Z,12.60
2022-11-14T23:24:08.628Z,12.50
2022-11-14T23:26:37.165Z,12.60
2022-11-14T23:29:05.892Z,12.60
2022-11-14T23:31:34.061Z,12.60
2022-11-14T23:34:02.210Z,12.60
2022-11-14T23:36:30.327Z,12.60
2022-11-14T23:38:59.892Z,12.70
2022-11-14T23:41:28.313Z,12.70
2022-11-14T23:43:56.530Z,12.70
2022-11-14T23:46:24.704Z,12.70
2022-11-14T23:48:53.444Z,12.70
2022-11-14T23:51:21.958Z,12.70
2022-11-14T23:53:50.142Z,12.70
2022-11-14T23:56:20.081Z,12.70
2022-11-14T23:58:48.193Z,12.70
